sensor_id;sensor_type;location;lat;lon;timestamp;P1;durP1;ratioP1;P2;durP2;ratioP2
33716;SDS011;20046;50.746;7.072;2023-11-18T00:01:08;98.35;;;29.15;;
33716;SDS011;20046;50.746;7.072;2023-11-18T00:03:34;113.10;;;32.05;;
33716;SDS011;20046;50.746;7.072;2023-11-18T00:05:59;104.90;;;31.00;;
33716;SDS011;20046;50.746;7.072;2023-11-18T00:08:25;100.05;;;30.20;;
33716;SDS011;20046;50.746;7.072;2023-11-18T00:10:51;106.05;;;30.08;;
33716;SDS011;20046;50.746;7.072;2023-11-18T00:13:16;87.03;;;29.45;;
33716;SDS011;20046;50.746;7.072;2023-11-18T00:15:42;101.45;;;31.20;;
33716;SDS011;20046;50.746;7.072;2023-11-18T00:18:10;94.15;;;29.98;;
33716;SDS011;20046;50.746;7.072;2023-11-18T00:20:36;100.15;;;33.53;;
33716;SDS011;20046;50.746;7.072;2023-11-18T00:23:02;98.50;;;31.27;;
33716;SDS011;20046;50.746;7.072;2023-11-18T00:25:29;97.05;;;33.03;;
33716;SDS011;20046;50.746;7.072;2023-11-18T00:27:55;98.10;;;31.48;;
33716;SDS011;20046;50.746;7.072;2023-11-18T00:30:20;99.72;;;32.42;;
33716;SDS011;20046;50.746;7.072;2023-11-18T00:32:47;105.60;;;33.03;;
33716;SDS011;20046;50.746;7.072;2023-11-18T00:35:13;108.68;;;32.90;;
33716;SDS011;20046;50.746;7.072;2023-11-18T00:37:39;149.63;;;50.97;;
33716;SDS011;20046;50.746;7.072;2023-11-18T00:40:06;172.18;;;54.85;;
33716;SDS011;20046;50.746;7.072;2023-11-18T00:42:33;116.32;;;37.25;;
33716;SDS011;20046;50.746;7.072;2023-11-18T00:44:59;114.55;;;36.83;;
33716;SDS011;20046;50.746;7.072;2023-11-18T00:47:24;117.28;;;36.55;;
33716;SDS011;20046;50.746;7.072;2023-11-18T00:49:50;120.30;;;36.03;;
33716;SDS011;20046;50.746;7.072;2023-11-18T00:52:17;127.00;;;38.22;;
33716;SDS011;20046;50.746;7.072;2023-11-18T00:54:44;120.90;;;37.65;;
33716;SDS011;20046;50.746;7.072;2023-11-18T00:57:09;123.32;;;39.08;;
33716;SDS011;20046;50.746;7.072;2023-11-18T00:59:35;112.70;;;37.90;;
33716;SDS011;20046;50.746;7.072;2023-11-18T01:02:01;125.00;;;39.95;;
33716;SDS011;20046;50.746;7.072;2023-11-18T01:04:29;103.75;;;37.55;;
33716;SDS011;20046;50.746;7.072;2023-11-18T01:06:58;122.63;;;38.42;;
33716;SDS011;20046;50.746;7.072;2023-11-18T01:09:23;158.18;;;54.55;;
33716;SDS011;20046;50.746;7.072;2023-11-18T01:11:50;126.07;;;41.08;;
33716;SDS011;20046;50.746;7.072;2023-11-18T01:14:15;115.05;;;38.47;;
33716;SDS011;20046;50.746;7.072;2023-11-18T01:16:42;108.13;;;38.88;;
33716;SDS011;20046;50.746;7.072;2023-11-18T01:19:09;120.10;;;39.22;;
33716;SDS011;20046;50.746;7.072;2023-11-18T01:21:34;116.70;;;41.13;;
33716;SDS011;20046;50.746;7.072;2023-11-18T01:24:01;117.80;;;40.53;;
33716;SDS011;20046;50.746;7.072;2023-11-18T01:26:27;119.13;;;41.30;;
33716;SDS011;20046;50.746;7.072;2023-11-18T01:28:53;123.60;;;42.40;;
33716;SDS011;20046;50.746;7.072;2023-11-18T01:31:20;125.90;;;42.40;;
33716;SDS011;20046;50.746;7.072;2023-11-18T01:33:46;127.68;;;42.25;;
33716;SDS011;20046;50.746;7.072;2023-11-18T01:36:15;130.95;;;42.83;;
33716;SDS011;20046;50.746;7.072;2023-11-18T01:38:40;132.43;;;43.92;;
33716;SDS011;20046;50.746;7.072;2023-11-18T01:41:06;126.43;;;43.33;;
33716;SDS011;20046;50.746;7.072;2023-11-18T01:43:32;127.55;;;44.10;;
33716;SDS011;20046;50.746;7.072;2023-11-18T01:45:59;130.18;;;43.60;;
33716;SDS011;20046;50.746;7.072;2023-11-18T01:48:27;136.15;;;43.67;;
33716;SDS011;20046;50.746;7.072;2023-11-18T01:50:55;118.80;;;43.33;;
33716;SDS011;20046;50.746;7.072;2023-11-18T01:53:23;128.52;;;43.53;;
33716;SDS011;20046;50.746;7.072;2023-11-18T01:55:49;123.78;;;42.88;;
33716;SDS011;20046;50.746;7.072;2023-11-18T01:58:14;135.52;;;43.22;;
33716;SDS011;20046;50.746;7.072;2023-11-18T02:00:44;126.13;;;39.22;;
33716;SDS011;20046;50.746;7.072;2023-11-18T02:03:11;113.60;;;39.90;;
33716;SDS011;20046;50.746;7.072;2023-11-18T02:05:38;114.60;;;40.80;;
33716;SDS011;20046;50.746;7.072;2023-11-18T02:08:04;115.85;;;37.15;;
33716;SDS011;20046;50.746;7.072;2023-11-18T02:10:33;126.68;;;47.47;;
33716;SDS011;20046;50.746;7.072;2023-11-18T02:16:00;111.63;;;36.42;;
33716;SDS011;20046;50.746;7.072;2023-11-18T02:18:29;102.85;;;34.22;;
33716;SDS011;20046;50.746;7.072;2023-11-18T02:20:55;92.57;;;32.60;;
33716;SDS011;20046;50.746;7.072;2023-11-18T02:23:25;102.15;;;33.97;;
33716;SDS011;20046;50.746;7.072;2023-11-18T02:25:51;102.07;;;33.40;;
33716;SDS011;20046;50.746;7.072;2023-11-18T02:28:17;104.25;;;34.42;;
33716;SDS011;20046;50.746;7.072;2023-11-18T02:30:44;99.90;;;33.53;;
33716;SDS011;20046;50.746;7.072;2023-11-18T02:35:54;96.43;;;32.70;;
33716;SDS011;20046;50.746;7.072;2023-11-18T02:38:46;93.80;;;33.78;;
33716;SDS011;20046;50.746;7.072;2023-11-18T02:41:15;109.40;;;34.65;;
33716;SDS011;20046;50.746;7.072;2023-11-18T02:43:44;110.90;;;32.40;;
33716;SDS011;20046;50.746;7.072;2023-11-18T02:46:10;105.30;;;33.05;;
33716;SDS011;20046;50.746;7.072;2023-11-18T02:48:39;99.15;;;31.95;;
33716;SDS011;20046;50.746;7.072;2023-11-18T02:51:06;92.63;;;32.38;;
33716;SDS011;20046;50.746;7.072;2023-11-18T02:53:33;104.43;;;34.05;;
33716;SDS011;20046;50.746;7.072;2023-11-18T02:55:59;98.07;;;33.67;;
33716;SDS011;20046;50.746;7.072;2023-11-18T02:58:30;95.65;;;33.03;;
33716;SDS011;20046;50.746;7.072;2023-11-18T03:00:56;94.93;;;34.55;;
33716;SDS011;20046;50.746;7.072;2023-11-18T03:03:25;93.43;;;33.25;;
33716;SDS011;20046;50.746;7.072;2023-11-18T03:05:52;96.25;;;35.05;;
33716;SDS011;20046;50.746;7.072;2023-11-18T03:08:18;98.93;;;35.28;;
33716;SDS011;20046;50.746;7.072;2023-11-18T03:10:43;84.55;;;32.72;;
33716;SDS011;20046;50.746;7.072;2023-11-18T03:13:09;93.70;;;34.78;;
33716;SDS011;20046;50.746;7.072;2023-11-18T03:15:35;96.28;;;34.85;;
33716;SDS011;20046;50.746;7.072;2023-11-18T03:18:00;95.28;;;33.05;;
33716;SDS011;20046;50.746;7.072;2023-11-18T03:20:26;97.70;;;35.03;;
33716;SDS011;20046;50.746;7.072;2023-11-18T03:22:52;84.88;;;34.47;;
33716;SDS011;20046;50.746;7.072;2023-11-18T03:25:18;93.95;;;34.90;;
33716;SDS011;20046;50.746;7.072;2023-11-18T03:27:47;85.10;;;31.25;;
33716;SDS011;20046;50.746;7.072;2023-11-18T03:30:12;85.68;;;32.33;;
33716;SDS011;20046;50.746;7.072;2023-11-18T03:32:38;83.75;;;33.50;;
33716;SDS011;20046;50.746;7.072;2023-11-18T03:35:07;91.55;;;33.25;;
33716;SDS011;20046;50.746;7.072;2023-11-18T03:37:37;89.55;;;31.67;;
33716;SDS011;20046;50.746;7.072;2023-11-18T03:40:04;83.25;;;31.80;;
33716;SDS011;20046;50.746;7.072;2023-11-18T03:42:31;87.75;;;34.03;;
33716;SDS011;20046;50.746;7.072;2023-11-18T03:44:56;84.15;;;32.72;;
33716;SDS011;20046;50.746;7.072;2023-11-18T03:47:22;127.85;;;51.08;;
33716;SDS011;20046;50.746;7.072;2023-11-18T03:49:49;94.40;;;39.03;;
33716;SDS011;20046;50.746;7.072;2023-11-18T03:52:15;85.10;;;31.13;;
33716;SDS011;20046;50.746;7.072;2023-11-18T03:54:41;84.28;;;31.45;;
33716;SDS011;20046;50.746;7.072;2023-11-18T03:57:06;82.43;;;31.40;;
33716;SDS011;20046;50.746;7.072;2023-11-18T03:59:32;86.47;;;31.90;;
33716;SDS011;20046;50.746;7.072;2023-11-18T04:01:58;73.63;;;29.70;;
33716;SDS011;20046;50.746;7.072;2023-11-18T04:04:23;80.40;;;29.90;;
33716;SDS011;20046;50.746;7.072;2023-11-18T04:06:49;83.28;;;30.10;;
33716;SDS011;20046;50.746;7.072;2023-11-18T04:09:15;77.97;;;30.08;;
33716;SDS011;20046;50.746;7.072;2023-11-18T04:11:41;73.63;;;29.75;;
33716;SDS011;20046;50.746;7.072;2023-11-18T04:14:09;71.65;;;29.90;;
33716;SDS011;20046;50.746;7.072;2023-11-18T04:16:35;76.05;;;29.27;;
33716;SDS011;20046;50.746;7.072;2023-11-18T04:19:02;68.97;;;28.48;;
33716;SDS011;20046;50.746;7.072;2023-11-18T04:21:28;75.60;;;29.48;;
33716;SDS011;20046;50.746;7.072;2023-11-18T04:23:54;77.00;;;31.15;;
33716;SDS011;20046;50.746;7.072;2023-11-18T04:26:20;71.13;;;29.70;;
33716;SDS011;20046;50.746;7.072;2023-11-18T04:28:45;63.28;;;27.67;;
33716;SDS011;20046;50.746;7.072;2023-11-18T04:31:11;72.28;;;28.63;;
33716;SDS011;20046;50.746;7.072;2023-11-18T04:33:37;68.75;;;28.15;;
33716;SDS011;20046;50.746;7.072;2023-11-18T04:36:02;68.93;;;27.85;;
33716;SDS011;20046;50.746;7.072;2023-11-18T04:38:30;65.70;;;27.30;;
33716;SDS011;20046;50.746;7.072;2023-11-18T04:40:57;75.22;;;26.95;;
33716;SDS011;20046;50.746;7.072;2023-11-18T04:43:22;66.55;;;27.00;;
33716;SDS011;20046;50.746;7.072;2023-11-18T04:45:49;64.95;;;28.13;;
33716;SDS011;20046;50.746;7.072;2023-11-18T04:48:14;69.63;;;27.75;;
33716;SDS011;20046;50.746;7.072;2023-11-18T04:50:43;70.38;;;27.25;;
33716;SDS011;20046;50.746;7.072;2023-11-18T04:53:09;73.93;;;29.65;;
33716;SDS011;20046;50.746;7.072;2023-11-18T04:55:36;70.85;;;26.92;;
33716;SDS011;20046;50.746;7.072;2023-11-18T04:58:05;67.40;;;26.67;;
33716;SDS011;20046;50.746;7.072;2023-11-18T05:00:33;66.05;;;26.88;;
33716;SDS011;20046;50.746;7.072;2023-11-18T05:02:59;67.97;;;27.08;;
33716;SDS011;20046;50.746;7.072;2023-11-18T05:05:25;63.33;;;26.25;;
33716;SDS011;20046;50.746;7.072;2023-11-18T05:07:51;67.22;;;26.05;;
33716;SDS011;20046;50.746;7.072;2023-11-18T05:10:16;69.65;;;26.38;;
33716;SDS011;20046;50.746;7.072;2023-11-18T05:12:43;58.05;;;26.23;;
33716;SDS011;20046;50.746;7.072;2023-11-18T05:15:09;65.70;;;24.80;;
33716;SDS011;20046;50.746;7.072;2023-11-18T05:17:35;70.95;;;26.58;;
33716;SDS011;20046;50.746;7.072;2023-11-18T05:20:02;65.85;;;26.13;;
33716;SDS011;20046;50.746;7.072;2023-11-18T05:22:29;59.00;;;26.08;;
33716;SDS011;20046;50.746;7.072;2023-11-18T05:24:55;66.70;;;26.13;;
33716;SDS011;20046;50.746;7.072;2023-11-18T05:27:22;60.50;;;26.08;;
33716;SDS011;20046;50.746;7.072;2023-11-18T05:29:48;64.47;;;25.38;;
33716;SDS011;20046;50.746;7.072;2023-11-18T05:32:22;57.22;;;25.75;;
33716;SDS011;20046;50.746;7.072;2023-11-18T05:34:48;58.08;;;23.83;;
33716;SDS011;20046;50.746;7.072;2023-11-18T05:37:18;60.60;;;26.17;;
33716;SDS011;20046;50.746;7.072;2023-11-18T05:39:44;62.90;;;25.23;;
33716;SDS011;20046;50.746;7.072;2023-11-18T05:42:10;60.45;;;25.40;;
33716;SDS011;20046;50.746;7.072;2023-11-18T05:44:36;55.60;;;23.67;;
33716;SDS011;20046;50.746;7.072;2023-11-18T05:47:04;53.95;;;24.73;;
33716;SDS011;20046;50.746;7.072;2023-11-18T05:49:30;60.42;;;25.70;;
33716;SDS011;20046;50.746;7.072;2023-11-18T05:51:56;51.72;;;23.80;;
33716;SDS011;20046;50.746;7.072;2023-11-18T05:54:22;59.60;;;26.00;;
33716;SDS011;20046;50.746;7.072;2023-11-18T05:56:48;61.17;;;25.17;;
33716;SDS011;20046;50.746;7.072;2023-11-18T05:59:13;52.03;;;23.92;;
33716;SDS011;20046;50.746;7.072;2023-11-18T06:01:39;55.72;;;23.83;;
33716;SDS011;20046;50.746;7.072;2023-11-18T06:04:05;59.17;;;24.98;;
33716;SDS011;20046;50.746;7.072;2023-11-18T06:06:33;54.65;;;24.02;;
33716;SDS011;20046;50.746;7.072;2023-11-18T06:08:59;59.78;;;24.52;;
33716;SDS011;20046;50.746;7.072;2023-11-18T06:11:29;55.50;;;24.15;;
33716;SDS011;20046;50.746;7.072;2023-11-18T06:13:56;56.42;;;23.90;;
33716;SDS011;20046;50.746;7.072;2023-11-18T06:16:23;55.10;;;23.58;;
33716;SDS011;20046;50.746;7.072;2023-11-18T06:18:50;59.60;;;22.83;;
33716;SDS011;20046;50.746;7.072;2023-11-18T06:21:18;52.58;;;24.27;;
33716;SDS011;20046;50.746;7.072;2023-11-18T06:23:45;51.30;;;22.48;;
33716;SDS011;20046;50.746;7.072;2023-11-18T06:26:12;54.17;;;23.23;;
33716;SDS011;20046;50.746;7.072;2023-11-18T06:28:39;55.63;;;23.13;;
33716;SDS011;20046;50.746;7.072;2023-11-18T06:31:06;55.90;;;22.80;;
33716;SDS011;20046;50.746;7.072;2023-11-18T06:33:40;53.58;;;22.95;;
33716;SDS011;20046;50.746;7.072;2023-11-18T06:36:08;57.65;;;23.83;;
33716;SDS011;20046;50.746;7.072;2023-11-18T06:38:36;52.00;;;21.85;;
33716;SDS011;20046;50.746;7.072;2023-11-18T06:41:02;47.78;;;21.35;;
33716;SDS011;20046;50.746;7.072;2023-11-18T06:43:30;58.08;;;23.80;;
33716;SDS011;20046;50.746;7.072;2023-11-18T06:46:11;48.75;;;21.88;;
33716;SDS011;20046;50.746;7.072;2023-11-18T06:48:39;54.60;;;23.25;;
33716;SDS011;20046;50.746;7.072;2023-11-18T06:51:05;51.13;;;22.50;;
33716;SDS011;20046;50.746;7.072;2023-11-18T06:53:33;53.95;;;22.80;;
33716;SDS011;20046;50.746;7.072;2023-11-18T06:55:59;49.90;;;22.55;;
33716;SDS011;20046;50.746;7.072;2023-11-18T06:58:25;53.83;;;23.02;;
33716;SDS011;20046;50.746;7.072;2023-11-18T07:00:51;57.83;;;23.25;;
33716;SDS011;20046;50.746;7.072;2023-11-18T07:03:17;51.33;;;23.17;;
33716;SDS011;20046;50.746;7.072;2023-11-18T07:05:43;52.53;;;22.63;;
33716;SDS011;20046;50.746;7.072;2023-11-18T07:08:09;55.83;;;23.38;;
33716;SDS011;20046;50.746;7.072;2023-11-18T07:10:35;52.67;;;22.38;;
33716;SDS011;20046;50.746;7.072;2023-11-18T07:13:02;52.67;;;22.90;;
33716;SDS011;20046;50.746;7.072;2023-11-18T07:15:27;51.25;;;21.65;;
33716;SDS011;20046;50.746;7.072;2023-11-18T07:17:53;54.38;;;22.65;;
33716;SDS011;20046;50.746;7.072;2023-11-18T07:20:18;52.10;;;22.15;;
33716;SDS011;20046;50.746;7.072;2023-11-18T07:22:44;52.33;;;21.67;;
33716;SDS011;20046;50.746;7.072;2023-11-18T07:25:10;45.35;;;20.95;;
33716;SDS011;20046;50.746;7.072;2023-11-18T07:27:35;47.00;;;21.23;;
33716;SDS011;20046;50.746;7.072;2023-11-18T07:30:01;45.40;;;20.85;;
33716;SDS011;20046;50.746;7.072;2023-11-18T07:32:28;44.10;;;20.50;;
33716;SDS011;20046;50.746;7.072;2023-11-18T07:34:54;42.53;;;19.77;;
33716;SDS011;20046;50.746;7.072;2023-11-18T07:37:20;48.60;;;20.67;;
33716;SDS011;20046;50.746;7.072;2023-11-18T07:39:47;45.58;;;20.77;;
33716;SDS011;20046;50.746;7.072;2023-11-18T07:42:13;48.78;;;21.45;;
33716;SDS011;20046;50.746;7.072;2023-11-18T07:44:43;41.85;;;21.08;;
33716;SDS011;20046;50.746;7.072;2023-11-18T07:47:08;39.47;;;19.65;;
33716;SDS011;20046;50.746;7.072;2023-11-18T07:49:34;47.92;;;21.63;;
33716;SDS011;20046;50.746;7.072;2023-11-18T07:52:03;42.72;;;20.67;;
33716;SDS011;20046;50.746;7.072;2023-11-18T07:54:29;49.20;;;20.65;;
33716;SDS011;20046;50.746;7.072;2023-11-18T07:56:55;41.05;;;20.25;;
33716;SDS011;20046;50.746;7.072;2023-11-18T07:59:20;37.67;;;18.77;;
33716;SDS011;20046;50.746;7.072;2023-11-18T08:01:47;43.17;;;20.75;;
33716;SDS011;20046;50.746;7.072;2023-11-18T08:04:13;41.58;;;21.15;;
33716;SDS011;20046;50.746;7.072;2023-11-18T08:06:41;48.33;;;21.33;;
33716;SDS011;20046;50.746;7.072;2023-11-18T08:09:08;42.13;;;19.70;;
33716;SDS011;20046;50.746;7.072;2023-11-18T08:11:38;40.58;;;19.98;;
33716;SDS011;20046;50.746;7.072;2023-11-18T08:14:06;44.22;;;19.27;;
33716;SDS011;20046;50.746;7.072;2023-11-18T08:16:35;42.78;;;20.10;;
33716;SDS011;20046;50.746;7.072;2023-11-18T08:19:01;40.70;;;18.73;;
33716;SDS011;20046;50.746;7.072;2023-11-18T08:21:33;37.40;;;19.27;;
33716;SDS011;20046;50.746;7.072;2023-11-18T08:24:07;37.03;;;18.33;;
33716;SDS011;20046;50.746;7.072;2023-11-18T08:26:34;41.72;;;18.63;;
33716;SDS011;20046;50.746;7.072;2023-11-18T08:29:01;32.00;;;17.48;;
33716;SDS011;20046;50.746;7.072;2023-11-18T08:31:26;33.88;;;17.88;;
33716;SDS011;20046;50.746;7.072;2023-11-18T08:33:52;33.72;;;17.55;;
33716;SDS011;20046;50.746;7.072;2023-11-18T08:36:19;32.00;;;16.58;;
33716;SDS011;20046;50.746;7.072;2023-11-18T08:38:47;31.38;;;16.00;;
33716;SDS011;20046;50.746;7.072;2023-11-18T08:41:16;37.30;;;18.20;;
33716;SDS011;20046;50.746;7.072;2023-11-18T08:43:42;39.85;;;17.25;;
33716;SDS011;20046;50.746;7.072;2023-11-18T08:46:08;27.95;;;15.52;;
33716;SDS011;20046;50.746;7.072;2023-11-18T08:48:34;29.73;;;15.82;;
33716;SDS011;20046;50.746;7.072;2023-11-18T08:50:59;32.47;;;16.13;;
33716;SDS011;20046;50.746;7.072;2023-11-18T08:53:26;29.58;;;14.30;;
33716;SDS011;20046;50.746;7.072;2023-11-18T08:55:52;32.15;;;16.00;;
33716;SDS011;20046;50.746;7.072;2023-11-18T08:58:21;32.20;;;15.18;;
33716;SDS011;20046;50.746;7.072;2023-11-18T09:00:51;30.05;;;14.90;;
33716;SDS011;20046;50.746;7.072;2023-11-18T09:06:00;30.02;;;15.30;;
33716;SDS011;20046;50.746;7.072;2023-11-18T09:08:42;37.05;;;14.95;;
33716;SDS011;20046;50.746;7.072;2023-11-18T09:11:17;26.23;;;14.30;;
33716;SDS011;20046;50.746;7.072;2023-11-18T09:13:45;27.85;;;14.00;;
33716;SDS011;20046;50.746;7.072;2023-11-18T09:18:47;25.20;;;13.75;;
33716;SDS011;20046;50.746;7.072;2023-11-18T09:21:13;35.95;;;15.75;;
33716;SDS011;20046;50.746;7.072;2023-11-18T09:23:40;27.20;;;14.52;;
33716;SDS011;20046;50.746;7.072;2023-11-18T09:26:07;30.60;;;15.90;;
33716;SDS011;20046;50.746;7.072;2023-11-18T09:28:34;24.88;;;14.20;;
33716;SDS011;20046;50.746;7.072;2023-11-18T09:31:00;28.73;;;14.48;;
33716;SDS011;20046;50.746;7.072;2023-11-18T09:33:28;42.03;;;16.65;;
33716;SDS011;20046;50.746;7.072;2023-11-18T09:35:59;25.95;;;14.02;;
33716;SDS011;20046;50.746;7.072;2023-11-18T09:38:26;31.77;;;14.32;;
33716;SDS011;20046;50.746;7.072;2023-11-18T09:40:58;25.63;;;14.38;;
33716;SDS011;20046;50.746;7.072;2023-11-18T09:43:28;27.20;;;14.68;;
33716;SDS011;20046;50.746;7.072;2023-11-18T09:46:00;28.02;;;13.93;;
33716;SDS011;20046;50.746;7.072;2023-11-18T09:48:37;28.40;;;13.40;;
33716;SDS011;20046;50.746;7.072;2023-11-18T09:51:10;30.52;;;14.85;;
33716;SDS011;20046;50.746;7.072;2023-11-18T09:53:46;29.23;;;15.02;;
33716;SDS011;20046;50.746;7.072;2023-11-18T09:56:19;29.38;;;14.73;;
33716;SDS011;20046;50.746;7.072;2023-11-18T10:01:44;23.10;;;13.38;;
33716;SDS011;20046;50.746;7.072;2023-11-18T10:04:22;25.08;;;13.20;;
33716;SDS011;20046;50.746;7.072;2023-11-18T10:06:52;27.02;;;14.18;;
33716;SDS011;20046;50.746;7.072;2023-11-18T10:09:19;27.85;;;14.25;;
33716;SDS011;20046;50.746;7.072;2023-11-18T10:11:53;31.30;;;13.50;;
33716;SDS011;20046;50.746;7.072;2023-11-18T10:14:25;27.13;;;13.65;;
33716;SDS011;20046;50.746;7.072;2023-11-18T10:16:51;27.50;;;13.50;;
33716;SDS011;20046;50.746;7.072;2023-11-18T10:19:19;22.63;;;12.57;;
33716;SDS011;20046;50.746;7.072;2023-11-18T10:21:44;25.63;;;12.30;;
33716;SDS011;20046;50.746;7.072;2023-11-18T10:24:13;22.58;;;12.80;;
33716;SDS011;20046;50.746;7.072;2023-11-18T10:26:42;24.27;;;12.20;;
33716;SDS011;20046;50.746;7.072;2023-11-18T10:29:10;21.02;;;11.65;;
33716;SDS011;20046;50.746;7.072;2023-11-18T10:31:38;19.67;;;10.60;;
33716;SDS011;20046;50.746;7.072;2023-11-18T10:34:10;28.75;;;11.48;;
33716;SDS011;20046;50.746;7.072;2023-11-18T10:36:36;24.80;;;11.20;;
33716;SDS011;20046;50.746;7.072;2023-11-18T10:39:02;17.83;;;10.35;;
33716;SDS011;20046;50.746;7.072;2023-11-18T10:41:40;18.33;;;10.15;;
33716;SDS011;20046;50.746;7.072;2023-11-18T10:44:12;18.63;;;10.15;;
33716;SDS011;20046;50.746;7.072;2023-11-18T10:46:41;19.33;;;9.15;;
33716;SDS011;20046;50.746;7.072;2023-11-18T10:49:17;16.20;;;9.55;;
33716;SDS011;20046;50.746;7.072;2023-11-18T10:51:45;21.60;;;10.15;;
33716;SDS011;20046;50.746;7.072;2023-11-18T10:54:12;20.40;;;10.73;;
33716;SDS011;20046;50.746;7.072;2023-11-18T10:56:50;17.63;;;10.48;;
33716;SDS011;20046;50.746;7.072;2023-11-18T10:59:18;20.10;;;10.68;;
33716;SDS011;20046;50.746;7.072;2023-11-18T11:01:44;22.33;;;10.48;;
33716;SDS011;20046;50.746;7.072;2023-11-18T11:04:13;22.08;;;10.48;;
33716;SDS011;20046;50.746;7.072;2023-11-18T11:06:46;23.65;;;10.90;;
33716;SDS011;20046;50.746;7.072;2023-11-18T11:09:18;26.45;;;10.68;;
33716;SDS011;20046;50.746;7.072;2023-11-18T11:11:53;17.02;;;10.05;;
33716;SDS011;20046;50.746;7.072;2023-11-18T11:14:21;21.08;;;10.13;;
33716;SDS011;20046;50.746;7.072;2023-11-18T11:17:00;21.58;;;10.90;;
33716;SDS011;20046;50.746;7.072;2023-11-18T11:19:41;20.65;;;10.88;;
33716;SDS011;20046;50.746;7.072;2023-11-18T11:22:21;17.88;;;9.45;;
33716;SDS011;20046;50.746;7.072;2023-11-18T11:27:34;19.75;;;10.70;;
33716;SDS011;20046;50.746;7.072;2023-11-18T11:33:49;20.20;;;11.02;;
33716;SDS011;20046;50.746;7.072;2023-11-18T11:35:46;18.90;;;10.70;;
33716;SDS011;20046;50.746;7.072;2023-11-18T11:38:22;18.95;;;10.52;;
33716;SDS011;20046;50.746;7.072;2023-11-18T11:40:49;21.73;;;9.65;;
33716;SDS011;20046;50.746;7.072;2023-11-18T11:43:18;24.70;;;10.73;;
33716;SDS011;20046;50.746;7.072;2023-11-18T11:45:50;18.95;;;10.88;;
33716;SDS011;20046;50.746;7.072;2023-11-18T11:48:20;19.98;;;10.25;;
33716;SDS011;20046;50.746;7.072;2023-11-18T11:53:39;20.70;;;10.15;;
33716;SDS011;20046;50.746;7.072;2023-11-18T11:56:10;18.88;;;10.95;;
33716;SDS011;20046;50.746;7.072;2023-11-18T11:58:40;24.80;;;11.10;;
33716;SDS011;20046;50.746;7.072;2023-11-18T12:01:27;20.70;;;10.75;;
33716;SDS011;20046;50.746;7.072;2023-11-18T12:04:18;21.80;;;10.68;;
33716;SDS011;20046;50.746;7.072;2023-11-18T12:06:48;20.20;;;9.48;;
33716;SDS011;20046;50.746;7.072;2023-11-18T12:09:18;22.58;;;9.70;;
33716;SDS011;20046;50.746;7.072;2023-11-18T12:11:45;19.35;;;10.13;;
33716;SDS011;20046;50.746;7.072;2023-11-18T12:14:14;22.30;;;10.82;;
33716;SDS011;20046;50.746;7.072;2023-11-18T12:16:57;24.83;;;10.75;;
33716;SDS011;20046;50.746;7.072;2023-11-18T12:19:32;18.95;;;9.52;;
33716;SDS011;20046;50.746;7.072;2023-11-18T12:22:22;16.55;;;9.00;;
33716;SDS011;20046;50.746;7.072;2023-11-18T12:41:44;21.27;;;10.93;;
33716;SDS011;20046;50.746;7.072;2023-11-18T12:44:16;25.58;;;11.73;;
33716;SDS011;20046;50.746;7.072;2023-11-18T12:47:02;19.37;;;10.90;;
33716;SDS011;20046;50.746;7.072;2023-11-18T12:49:39;21.92;;;11.05;;
33716;SDS011;20046;50.746;7.072;2023-11-18T12:52:15;24.20;;;11.57;;
33716;SDS011;20046;50.746;7.072;2023-11-18T12:54:44;26.52;;;12.18;;
33716;SDS011;20046;50.746;7.072;2023-11-18T12:57:15;22.70;;;11.20;;
33716;SDS011;20046;50.746;7.072;2023-11-18T12:59:51;23.92;;;11.95;;
33716;SDS011;20046;50.746;7.072;2023-11-18T13:02:16;21.17;;;11.10;;
33716;SDS011;20046;50.746;7.072;2023-11-18T13:04:45;21.75;;;10.90;;
33716;SDS011;20046;50.746;7.072;2023-11-18T13:07:17;22.17;;;10.80;;
33716;SDS011;20046;50.746;7.072;2023-11-18T13:09:44;17.27;;;9.45;;
33716;SDS011;20046;50.746;7.072;2023-11-18T13:12:11;23.92;;;10.48;;
33716;SDS011;20046;50.746;7.072;2023-11-18T13:14:40;20.92;;;9.85;;
33716;SDS011;20046;50.746;7.072;2023-11-18T13:17:10;22.15;;;9.77;;
33716;SDS011;20046;50.746;7.072;2023-11-18T13:19:38;17.60;;;10.18;;
33716;SDS011;20046;50.746;7.072;2023-11-18T13:22:05;21.55;;;9.18;;
33716;SDS011;20046;50.746;7.072;2023-11-18T13:24:36;27.00;;;10.02;;
33716;SDS011;20046;50.746;7.072;2023-11-18T13:27:06;25.73;;;9.23;;
33716;SDS011;20046;50.746;7.072;2023-11-18T13:29:35;21.08;;;9.18;;
33716;SDS011;20046;50.746;7.072;2023-11-18T13:32:04;19.58;;;8.95;;
33716;SDS011;20046;50.746;7.072;2023-11-18T13:34:32;18.73;;;8.35;;
33716;SDS011;20046;50.746;7.072;2023-11-18T13:37:03;15.45;;;8.25;;
33716;SDS011;20046;50.746;7.072;2023-11-18T13:39:31;17.33;;;7.97;;
33716;SDS011;20046;50.746;7.072;2023-11-18T13:41:56;14.95;;;7.97;;
33716;SDS011;20046;50.746;7.072;2023-11-18T13:44:32;19.92;;;8.75;;
33716;SDS011;20046;50.746;7.072;2023-11-18T13:47:03;19.60;;;8.23;;
33716;SDS011;20046;50.746;7.072;2023-11-18T13:49:36;17.00;;;8.18;;
33716;SDS011;20046;50.746;7.072;2023-11-18T13:52:06;21.02;;;8.57;;
33716;SDS011;20046;50.746;7.072;2023-11-18T13:54:37;15.80;;;8.05;;
33716;SDS011;20046;50.746;7.072;2023-11-18T13:57:06;24.73;;;8.85;;
33716;SDS011;20046;50.746;7.072;2023-11-18T13:59:32;18.67;;;8.55;;
33716;SDS011;20046;50.746;7.072;2023-11-18T14:01:58;22.67;;;8.43;;
33716;SDS011;20046;50.746;7.072;2023-11-18T14:04:27;19.30;;;8.15;;
33716;SDS011;20046;50.746;7.072;2023-11-18T14:06:58;19.50;;;8.18;;
33716;SDS011;20046;50.746;7.072;2023-11-18T14:09:25;17.92;;;7.60;;
33716;SDS011;20046;50.746;7.072;2023-11-18T14:11:54;15.52;;;7.75;;
33716;SDS011;20046;50.746;7.072;2023-11-18T14:14:20;23.20;;;8.65;;
33716;SDS011;20046;50.746;7.072;2023-11-18T14:16:46;16.85;;;7.82;;
33716;SDS011;20046;50.746;7.072;2023-11-18T14:19:12;16.10;;;8.65;;
33716;SDS011;20046;50.746;7.072;2023-11-18T14:21:38;23.20;;;8.18;;
33716;SDS011;20046;50.746;7.072;2023-11-18T14:24:06;16.33;;;7.70;;
33716;SDS011;20046;50.746;7.072;2023-11-18T14:26:36;19.95;;;7.95;;
33716;SDS011;20046;50.746;7.072;2023-11-18T14:29:04;17.15;;;7.72;;
33716;SDS011;20046;50.746;7.072;2023-11-18T14:31:31;28.65;;;9.23;;
33716;SDS011;20046;50.746;7.072;2023-11-18T14:33:56;15.05;;;7.55;;
33716;SDS011;20046;50.746;7.072;2023-11-18T14:36:24;27.33;;;8.30;;
33716;SDS011;20046;50.746;7.072;2023-11-18T14:38:50;17.75;;;6.85;;
33716;SDS011;20046;50.746;7.072;2023-11-18T14:43:41;14.65;;;6.40;;
33716;SDS011;20046;50.746;7.072;2023-11-18T14:46:07;19.25;;;7.13;;
33716;SDS011;20046;50.746;7.072;2023-11-18T14:48:33;12.77;;;6.65;;
33716;SDS011;20046;50.746;7.072;2023-11-18T14:50:59;15.40;;;6.00;;
33716;SDS011;20046;50.746;7.072;2023-11-18T14:53:25;15.52;;;6.85;;
33716;SDS011;20046;50.746;7.072;2023-11-18T14:55:51;14.02;;;6.32;;
33716;SDS011;20046;50.746;7.072;2023-11-18T14:58:16;12.75;;;6.50;;
33716;SDS011;20046;50.746;7.072;2023-11-18T15:00:42;16.92;;;6.35;;
33716;SDS011;20046;50.746;7.072;2023-11-18T15:03:08;15.05;;;6.80;;
33716;SDS011;20046;50.746;7.072;2023-11-18T15:05:35;19.83;;;5.78;;
33716;SDS011;20046;50.746;7.072;2023-11-18T15:08:00;19.58;;;6.40;;